createdAt,value
2022-10-28T00:01:31.012Z,4.80
2022-10-28T00:06:33.585Z,4.40
2022-10-28T00:11:34.924Z,4.60
2022-10-28T00:16:37.576Z,5.33
2022-10-28T00:21:39.682Z,4.65
2022-10-28T00:26:44.721Z,4.87
2022-10-28T00:31:47.002Z,4.23
2022-10-28T00:36:48.404Z,4.43
2022-10-28T00:41:57.149Z,4.10
2022-10-28T00:46:58.384Z,4.00
2022-10-28T00:52:01.657Z,4.50
2022-10-28T00:57:04.036Z,4.10
2022-10-28T01:02:05.866Z,4.30
2022-10-28T01:07:07.169Z,3.88
2022-10-28T01:12:08.422Z,3.83
2022-10-28T01:17:29.340Z,3.53
2022-10-28T01:22:36.709Z,4.53
2022-10-28T01:27:55.666Z,3.70
2022-10-28T01:33:15.988Z,4.00
2022-10-28T01:38:17.277Z,4.00
2022-10-28T01:43:24.617Z,3.80
2022-10-28T01:48:32.553Z,3.55
2022-10-28T01:53:38.370Z,4.00
2022-10-28T01:58:39.981Z,3.57
2022-10-28T02:03:41.212Z,3.53
2022-10-28T02:08:52.737Z,3.87
2022-10-28T02:14:27.005Z,3.23
2022-10-28T02:19:37.295Z,3.80
2022-10-28T02:24:38.493Z,4.10
2022-10-28T02:29:44.576Z,4.25
2022-10-28T02:34:48.069Z,4.03
2022-10-28T02:39:51.065Z,3.50
2022-10-28T02:44:57.474Z,4.25
2022-10-28T02:50:01.351Z,3.35
2022-10-28T02:55:04.695Z,3.47
2022-10-28T03:00:08.136Z,3.47
2022-10-28T03:05:09.480Z,3.53
2022-10-28T03:10:10.720Z,3.00
2022-10-28T03:15:11.979Z,3.42
2022-10-28T03:20:13.317Z,3.30
2022-10-28T03:25:14.586Z,3.70
2022-10-28T03:30:18.321Z,3.67
2022-10-28T03:35:19.909Z,3.50
2022-10-28T03:40:21.125Z,4.20
2022-10-28T03:45:22.367Z,3.40
2022-10-28T03:50:25.117Z,3.27
2022-10-28T03:55:27.460Z,4.23
2022-10-28T04:00:28.947Z,3.55
2022-10-28T04:05:30.178Z,3.50
2022-10-28T04:10:31.407Z,3.37
2022-10-28T04:15:32.983Z,3.22
2022-10-28T04:20:34.202Z,3.10
2022-10-28T04:25:35.453Z,2.90
2022-10-28T04:30:36.665Z,3.10
2022-10-28T04:35:39.139Z,3.57
2022-10-28T04:40:40.576Z,4.17
2022-10-28T04:45:41.794Z,3.35
2022-10-28T04:50:43.041Z,3.13
2022-10-28T04:55:45.015Z,3.57
2022-10-28T05:00:46.240Z,3.10
2022-10-28T05:05:48.213Z,2.80
2022-10-28T05:10:51.019Z,3.60
2022-10-28T05:15:52.383Z,3.67
2022-10-28T05:20:54.947Z,4.07
2022-10-28T05:25:56.441Z,3.47
2022-10-28T05:30:57.675Z,4.18
2022-10-28T05:36:01.873Z,6.10
2022-10-28T05:41:03.471Z,4.90
2022-10-28T05:46:04.980Z,4.15
2022-10-28T05:51:06.237Z,4.60
2022-10-28T05:56:08.386Z,4.30
2022-10-28T06:01:10.037Z,3.90
2022-10-28T06:06:11.341Z,3.93
2022-10-28T06:11:11.164Z,3.53
2022-10-28T06:16:12.393Z,3.20
2022-10-28T06:21:13.673Z,4.00
2022-10-28T06:26:14.902Z,4.07
2022-10-28T06:31:16.127Z,6.03
2022-10-28T06:36:17.375Z,3.57
2022-10-28T06:41:18.612Z,3.53
2022-10-28T06:46:20.385Z,4.00
2022-10-28T06:51:23.515Z,4.10
2022-10-28T06:56:24.755Z,3.55
2022-10-28T07:01:26.203Z,5.17
2022-10-28T07:06:27.561Z,3.13
2022-10-28T07:11:28.820Z,3.95
2022-10-28T07:16:30.052Z,3.60
2022-10-28T07:21:31.320Z,5.30
2022-10-28T07:26:32.565Z,6.05
2022-10-28T07:31:33.919Z,4.47
2022-10-28T07:36:35.160Z,4.93
2022-10-28T07:41:37.024Z,3.97
2022-10-28T07:46:38.267Z,3.93
2022-10-28T07:51:39.489Z,3.40
2022-10-28T07:56:40.725Z,3.33
2022-10-28T08:01:42.003Z,3.60
2022-10-28T08:06:44.196Z,3.35
2022-10-28T08:11:45.447Z,3.50
2022-10-28T08:16:46.711Z,3.50
2022-10-28T08:21:47.931Z,3.58
2022-10-28T08:26:49.248Z,3.63
2022-10-28T08:31:50.500Z,3.67
2022-10-28T08:36:51.813Z,3.75
2022-10-28T08:42:11.722Z,4.10
2022-10-28T08:47:23.726Z,3.88
2022-10-28T08:52:45.995Z,4.87
2022-10-28T08:57:58.862Z,3.83
2022-10-28T09:03:15.801Z,4.00
2022-10-28T09:08:22.563Z,3.90
2022-10-28T09:13:29.708Z,3.37
2022-10-28T09:18:37.072Z,3.65
2022-10-28T09:23:49.426Z,3.57
2022-10-28T09:28:54.479Z,3.87
2022-10-28T09:33:58.699Z,4.38
2022-10-28T09:39:01.315Z,5.10
2022-10-28T09:44:13.493Z,9.27
2022-10-28T09:49:21.003Z,13.93
2022-10-28T09:54:27.767Z,5.60
2022-10-28T09:59:29.015Z,4.20
2022-10-28T10:04:35.674Z,4.05
2022-10-28T10:09:37.558Z,4.60
2022-10-28T10:14:49.852Z,4.20
2022-10-28T10:19:58.361Z,3.17
2022-10-28T10:24:59.793Z,5.00
2022-10-28T10:30:01.206Z,3.50
2022-10-28T10:35:02.487Z,3.60
2022-10-28T10:40:06.220Z,4.18
2022-10-28T10:45:16.617Z,4.93
2022-10-28T10:55:40.868Z,4.93
2022-10-28T11:00:47.188Z,3.47
2022-10-28T11:06:05.532Z,4.93
2022-10-28T11:11:18.477Z,4.13
2022-10-28T11:16:21.360Z,3.37
2022-10-28T11:21:31.556Z,4.20
2022-10-28T11:26:36.121Z,3.78
2022-10-28T11:31:46.089Z,3.72
2022-10-28T11:36:53.488Z,3.70
2022-10-28T11:42:00.525Z,3.55
2022-10-28T11:47:22.048Z,2.90
2022-10-28T11:52:45.327Z,4.00
2022-10-28T12:03:19.507Z,2.63
2022-10-28T12:08:29.493Z,2.53
2022-10-28T12:13:43.928Z,3.40
2022-10-28T12:18:50.609Z,3.25
2022-10-28T12:23:53.794Z,3.05
2022-10-28T12:28:58.190Z,2.63
2022-10-28T12:34:01.663Z,2.40
2022-10-28T12:39:21.471Z,2.78
2022-10-28T12:44:24.357Z,2.63
2022-10-28T12:49:31.772Z,2.67
2022-10-28T12:54:53.564Z,3.38
2022-10-28T12:59:59.594Z,3.47
2022-10-28T13:05:00.840Z,2.87
2022-10-28T13:10:11.919Z,3.78
2022-10-28T13:15:28.332Z,2.80
2022-10-28T13:20:48.593Z,2.40
2022-10-28T13:25:59.108Z,2.70
2022-10-28T13:31:02.090Z,2.92
2022-10-28T13:36:33.823Z,2.43
2022-10-28T13:41:37.158Z,3.88
2022-10-28T13:46:58.659Z,2.67
2022-10-28T13:52:01.476Z,2.87
2022-10-28T13:57:08.732Z,2.80
2022-10-28T14:02:35.309Z,3.00
2022-10-28T14:07:40.859Z,2.95
2022-10-28T14:12:47.498Z,3.03
2022-10-28T14:18:22.646Z,2.78
2022-10-28T14:23:30.900Z,2.78
2022-10-28T14:28:32.232Z,4.17
2022-10-28T14:33:34.408Z,4.75
2022-10-28T14:38:49.563Z,4.95
2022-10-28T14:43:53.583Z,3.53
2022-10-28T14:48:55.784Z,3.20
2022-10-28T14:53:58.569Z,3.67
2022-10-28T14:59:18.590Z,3.38
2022-10-28T15:04:20.735Z,3.00
2022-10-28T15:09:23.868Z,3.67
2022-10-28T15:14:29.625Z,3.55
2022-10-28T15:19:34.369Z,3.57
2022-10-28T15:24:35.661Z,3.90
2022-10-28T15:29:37.015Z,3.22
2022-10-28T15:34:38.266Z,4.00
2022-10-28T15:39:39.935Z,3.97
2022-10-28T15:44:41.306Z,3.40
2022-10-28T15:49:43.182Z,4.10
2022-10-28T15:54:54.284Z,8.03
2022-10-28T16:00:17.542Z,4.80
2022-10-28T16:05:34.155Z,4.63
2022-10-28T16:10:36.998Z,5.40
2022-10-28T16:15:45.726Z,4.55
2022-10-28T16:20:47.012Z,4.07
2022-10-28T16:25:48.472Z,3.63
2022-10-28T16:30:57.348Z,4.70
2022-10-28T16:35:58.904Z,3.55
2022-10-28T16:41:00.831Z,5.05
2022-10-28T16:46:02.094Z,5.03
2022-10-28T16:51:05.007Z,5.53
2022-10-28T16:56:09.833Z,6.53
2022-10-28T17:01:16.995Z,5.37
2022-10-28T17:06:18.387Z,5.40
2022-10-28T17:11:19.718Z,5.22
2022-10-28T17:16:20.994Z,4.43
2022-10-28T17:21:22.252Z,4.57
2022-10-28T17:26:23.486Z,5.10
2022-10-28T17:31:25.628Z,8.90
2022-10-28T17:36:27.043Z,7.83
2022-10-28T17:41:28.282Z,7.97
2022-10-28T17:46:29.517Z,7.80
2022-10-28T17:51:30.878Z,7.90
2022-10-28T17:56:35.386Z,7.35
2022-10-28T18:01:36.985Z,6.30
2022-10-28T18:06:38.304Z,5.50
2022-10-28T18:11:39.876Z,7.83
2022-10-28T18:16:41.198Z,11.25
2022-10-28T18:21:44.692Z,7.63
2022-10-28T18:26:45.945Z,7.57
2022-10-28T18:31:47.199Z,9.13
2022-10-28T18:36:48.532Z,9.32
2022-10-28T18:41:51.172Z,10.23
2022-10-28T18:46:52.505Z,8.30
2022-10-28T18:51:53.804Z,8.57
2022-10-28T18:56:57.543Z,8.70
2022-10-28T19:01:59.257Z,9.05
2022-10-28T19:07:00.607Z,9.75
2022-10-28T19:12:01.900Z,10.97
2022-10-28T19:17:03.425Z,12.88
2022-10-28T19:22:04.904Z,12.82
2022-10-28T19:27:06.271Z,8.70
2022-10-28T19:32:07.497Z,8.00
2022-10-28T19:37:08.719Z,9.43
2022-10-28T19:42:09.955Z,9.50
2022-10-28T19:47:11.190Z,8.70
2022-10-28T19:52:12.468Z,10.13
2022-10-28T20:02:19.961Z,8.23
2022-10-28T20:07:23.344Z,7.18
2022-10-28T20:12:24.585Z,7.07
2022-10-28T20:17:25.823Z,7.83
2022-10-28T20:22:27.112Z,7.25
2022-10-28T22:34:50.154Z,6.77
2022-10-28T22:39:51.409Z,6.43
2022-10-28T22:44:52.645Z,6.45
2022-10-28T22:49:53.948Z,5.03
2022-10-28T22:54:55.207Z,5.45
2022-10-28T22:59:56.473Z,5.85
2022-10-28T23:11:04.707Z,5.82
